createdAt,value
2023-03-21T00:00:01.222Z,17.30
2023-03-21T00:05:09.491Z,19.30
2023-03-21T00:10:12.354Z,17.00
2023-03-21T00:15:00.494Z,20.20
2023-03-21T00:20:02.878Z,19.30
2023-03-21T00:25:00.646Z,19.70
2023-03-21T00:30:00.528Z,16.90
2023-03-21T00:35:25.806Z,17.00
2023-03-21T00:40:00.785Z,21.30
2023-03-21T00:45:01.123Z,17.50
2023-03-21T00:50:00.487Z,16.70
2023-03-21T00:55:00.490Z,16.90
2023-03-21T01:00:02.394Z,18.90
2023-03-21T01:05:00.589Z,18.90
2023-03-21T01:10:00.514Z,17.30
2023-03-21T01:15:00.512Z,17.40
2023-03-21T01:20:00.500Z,18.80
2023-03-21T01:25:12.107Z,19.30
2023-03-21T01:30:00.495Z,16.90
2023-03-21T01:35:00.545Z,15.90
2023-03-21T01:40:01.103Z,13.80
2023-03-21T01:45:04.867Z,12.40
2023-03-21T01:50:02.859Z,13.70
2023-03-21T01:55:03.193Z,14.40
2023-03-21T02:00:04.490Z,13.80
2023-03-21T02:05:01.948Z,14.20
2023-03-21T02:10:03.132Z,13.40
2023-03-21T02:15:00.815Z,14.00
2023-03-21T02:20:09.026Z,15.60
2023-03-21T02:25:22.139Z,15.50
2023-03-21T02:30:04.801Z,17.90
2023-03-21T02:35:20.380Z,16.60
2023-03-21T02:40:10.583Z,17.30
2023-03-21T02:45:10.090Z,17.90
2023-03-21T02:50:11.797Z,14.60
2023-03-21T02:55:01.617Z,18.80
2023-03-21T03:00:10.731Z,16.40
2023-03-21T03:05:00.505Z,14.90
2023-03-21T03:10:07.102Z,17.50
2023-03-21T03:15:10.515Z,16.30
2023-03-21T03:20:17.625Z,17.60
2023-03-21T03:25:19.858Z,19.50
2023-03-21T03:30:02.303Z,13.00
2023-03-21T03:35:03.544Z,13.60
2023-03-21T03:40:12.281Z,11.10
2023-03-21T03:45:01.253Z,12.30
2023-03-21T03:50:03.562Z,12.40
2023-03-21T03:55:01.037Z,11.60
2023-03-21T04:00:01.313Z,10.20
2023-03-21T04:05:00.504Z,9.00
2023-03-21T04:10:00.544Z,8.90
2023-03-21T04:15:10.458Z,8.20
2023-03-21T04:20:10.804Z,9.20
2023-03-21T04:25:00.723Z,7.80
2023-03-21T04:30:00.515Z,9.30
2023-03-21T04:35:00.627Z,10.20
2023-03-21T04:40:01.521Z,9.20
2023-03-21T04:45:01.293Z,8.20
2023-03-21T04:50:00.522Z,7.10
2023-03-21T04:55:00.631Z,7.20
2023-03-21T05:00:03.054Z,6.60
2023-03-21T05:05:00.546Z,7.40
2023-03-21T05:10:02.421Z,6.70
2023-03-21T05:15:00.561Z,6.50
2023-03-21T05:20:00.604Z,6.50
2023-03-21T05:25:00.533Z,6.50
2023-03-21T05:30:02.991Z,6.90
2023-03-21T05:35:00.977Z,6.70
2023-03-21T05:40:01.625Z,6.10
2023-03-21T05:45:00.513Z,6.20
2023-03-21T05:50:00.519Z,6.50
2023-03-21T05:55:00.668Z,6.90
2023-03-21T06:00:01.450Z,7.60
2023-03-21T06:05:00.480Z,7.10
2023-03-21T06:10:00.505Z,6.50
2023-03-21T06:15:00.572Z,6.50
2023-03-21T06:20:01.038Z,6.20
2023-03-21T06:25:01.312Z,6.70
2023-03-21T06:30:01.133Z,6.20
2023-03-21T06:35:00.668Z,6.60
2023-03-21T06:40:00.538Z,7.50
2023-03-21T06:45:00.491Z,9.60
2023-03-21T06:50:01.170Z,9.00
2023-03-21T06:55:00.612Z,7.00
2023-03-21T07:00:01.307Z,6.00
2023-03-21T07:05:00.499Z,5.50
2023-03-21T07:10:00.509Z,6.40
2023-03-21T07:15:03.157Z,5.40
2023-03-21T07:20:00.550Z,5.60
2023-03-21T07:25:05.033Z,6.60
2023-03-21T07:30:00.494Z,6.60
2023-03-21T07:35:01.782Z,5.70
2023-03-21T07:40:00.504Z,5.00
2023-03-21T07:45:00.520Z,6.00
2023-03-21T07:50:00.815Z,5.10
2023-03-21T07:55:00.548Z,5.90
2023-03-21T08:00:01.260Z,6.00
2023-03-21T08:05:01.206Z,5.40
2023-03-21T08:10:00.502Z,5.10
2023-03-21T08:15:01.276Z,5.20
2023-03-21T08:20:00.538Z,4.80
2023-03-21T08:25:00.948Z,5.10
2023-03-21T08:30:00.618Z,5.10
2023-03-21T08:35:01.780Z,6.10
2023-03-21T08:40:00.565Z,7.20
2023-03-21T08:45:00.567Z,8.20
2023-03-21T08:50:00.595Z,7.40
2023-03-21T08:55:00.580Z,7.70
2023-03-21T09:00:01.133Z,6.20
2023-03-21T09:05:00.569Z,5.60
2023-03-21T09:10:19.636Z,6.30
2023-03-21T09:15:00.943Z,6.60
2023-03-21T09:20:00.596Z,6.40
2023-03-21T09:25:00.490Z,5.90
2023-03-21T09:30:00.506Z,5.90
2023-03-21T09:35:00.562Z,5.70
2023-03-21T09:40:00.486Z,6.00
2023-03-21T09:45:07.616Z,5.70
2023-03-21T09:50:14.784Z,4.70
2023-03-21T09:55:02.176Z,4.70
2023-03-21T10:00:05.864Z,4.90
2023-03-21T10:05:01.923Z,4.60
2023-03-21T10:10:01.944Z,4.80
2023-03-21T10:15:01.211Z,5.00
2023-03-21T10:20:17.766Z,4.70
2023-03-21T10:25:00.581Z,4.60
2023-03-21T10:30:00.992Z,5.50
2023-03-21T10:35:01.544Z,5.50
2023-03-21T10:40:00.799Z,5.10
2023-03-21T10:45:00.532Z,5.00
2023-03-21T10:50:07.841Z,4.00
2023-03-21T10:55:18.056Z,5.20
2023-03-21T11:00:04.377Z,4.70
2023-03-21T11:05:06.390Z,4.00
2023-03-21T11:10:17.184Z,4.00
2023-03-21T11:15:20.435Z,4.40
2023-03-21T11:20:04.871Z,4.60
2023-03-21T11:25:03.922Z,3.70
2023-03-21T11:30:02.748Z,4.60
2023-03-21T11:35:06.466Z,3.90
2023-03-21T11:40:08.130Z,4.30
2023-03-21T11:45:09.007Z,4.00
2023-03-21T11:50:04.969Z,4.00
2023-03-21T11:55:11.553Z,4.00
2023-03-21T12:00:10.802Z,4.40
2023-03-21T12:05:08.585Z,4.00
2023-03-21T12:10:20.245Z,4.00
2023-03-21T12:15:14.843Z,5.00
2023-03-21T12:20:06.852Z,4.90
2023-03-21T12:25:11.021Z,7.10
2023-03-21T12:30:09.484Z,4.20
2023-03-21T12:35:20.398Z,4.50
2023-03-21T12:40:17.608Z,4.60
2023-03-21T12:45:15.315Z,4.80
2023-03-21T12:50:20.383Z,4.10
2023-03-21T12:55:06.667Z,3.70
2023-03-21T13:00:15.016Z,4.00
2023-03-21T13:05:20.033Z,3.70
2023-03-21T13:10:03.730Z,4.10
2023-03-21T13:15:21.830Z,3.40
2023-03-21T13:20:14.297Z,4.00
2023-03-21T13:25:06.590Z,4.20
2023-03-21T13:30:06.767Z,5.00
2023-03-21T13:35:20.435Z,4.90
2023-03-21T13:40:05.760Z,4.90
2023-03-21T13:45:04.731Z,4.40
2023-03-21T13:50:20.000Z,5.40
2023-03-21T13:55:01.856Z,4.40
2023-03-21T14:00:19.891Z,4.70
2023-03-21T14:05:05.956Z,4.90
2023-03-21T14:10:05.162Z,4.00
2023-03-21T14:15:15.891Z,4.30
2023-03-21T14:20:09.129Z,4.70
2023-03-21T14:25:02.533Z,3.90
2023-03-21T14:30:02.171Z,4.00
2023-03-21T14:35:00.781Z,4.00
2023-03-21T14:40:05.141Z,4.30
2023-03-21T14:45:13.452Z,4.50
2023-03-21T14:50:00.721Z,4.50
2023-03-21T14:55:04.222Z,4.40
2023-03-21T15:00:05.530Z,4.50
2023-03-21T15:05:14.247Z,5.40
2023-03-21T15:10:04.280Z,5.10
2023-03-21T15:15:01.517Z,5.70
2023-03-21T15:20:00.934Z,4.70
2023-03-21T15:25:04.531Z,4.90
2023-03-21T15:30:00.534Z,5.10
2023-03-21T15:35:06.976Z,4.90
2023-03-21T15:40:19.307Z,4.90
2023-03-21T15:45:07.581Z,5.10
2023-03-21T15:50:07.192Z,5.20
2023-03-21T15:55:00.775Z,5.30
2023-03-21T16:00:20.732Z,5.50
2023-03-21T16:05:12.416Z,5.90
2023-03-21T16:10:02.978Z,5.00
2023-03-21T16:15:00.713Z,4.50
2023-03-21T16:20:00.508Z,5.00
2023-03-21T16:25:00.540Z,5.60
2023-03-21T16:30:00.592Z,6.20
2023-03-21T16:35:00.496Z,7.20
2023-03-21T16:40:01.254Z,6.50
2023-03-21T16:45:00.504Z,7.30
2023-03-21T16:50:00.630Z,7.50
2023-03-21T16:55:00.511Z,7.60
2023-03-21T17:00:01.303Z,7.80
2023-03-21T17:05:01.319Z,8.20
2023-03-21T17:10:00.488Z,7.60
2023-03-21T17:15:00.794Z,6.60
2023-03-21T17:20:01.024Z,6.30
2023-03-21T17:25:00.498Z,5.50
2023-03-21T17:30:00.815Z,5.30
2023-03-21T17:35:00.574Z,5.30
2023-03-21T17:40:00.468Z,5.20
2023-03-21T17:45:00.537Z,7.40
2023-03-21T17:50:00.999Z,8.70
2023-03-21T17:55:00.577Z,4.20
2023-03-21T18:00:01.339Z,4.90
2023-03-21T18:05:00.575Z,6.40
2023-03-21T18:10:00.562Z,7.00
2023-03-21T18:15:02.301Z,5.70
2023-03-21T18:20:00.685Z,5.10
2023-03-21T18:25:00.491Z,4.70
2023-03-21T18:30:41.249Z,5.20
2023-03-21T18:35:00.765Z,5.40
2023-03-21T18:40:00.685Z,4.70
2023-03-21T18:45:00.576Z,6.90
2023-03-21T18:50:15.279Z,6.10
2023-03-21T18:55:00.572Z,4.70
2023-03-21T19:00:03.101Z,5.00
2023-03-21T19:05:00.607Z,4.80
2023-03-21T19:10:17.149Z,4.50
2023-03-21T19:15:00.599Z,4.80
2023-03-21T19:20:00.498Z,4.90
2023-03-21T19:25:00.491Z,10.20
2023-03-21T19:30:13.422Z,5.00
2023-03-21T19:35:00.617Z,6.50
2023-03-21T19:40:00.737Z,7.50
2023-03-21T19:45:01.272Z,10.20
2023-03-21T19:50:47.207Z,8.50
2023-03-21T19:55:00.549Z,7.10
2023-03-21T20:00:01.426Z,4.60
2023-03-21T20:05:00.491Z,5.80
2023-03-21T20:10:00.508Z,5.20
2023-03-21T20:15:12.255Z,5.60
2023-03-21T20:20:00.592Z,5.20
2023-03-21T20:25:00.620Z,5.60
2023-03-21T20:30:09.056Z,4.60
2023-03-21T20:35:13.669Z,5.20
2023-03-21T20:40:00.921Z,5.60
2023-03-21T20:45:00.922Z,6.00
2023-03-21T20:50:00.485Z,8.10
2023-03-21T20:55:01.335Z,9.80
2023-03-21T21:00:01.116Z,8.70
2023-03-21T21:05:28.314Z,5.60
2023-03-21T21:10:00.530Z,6.00
2023-03-21T21:15:00.616Z,6.80
2023-03-21T21:20:03.854Z,9.40
2023-03-21T21:25:00.498Z,8.60
2023-03-21T21:30:00.611Z,10.60
2023-03-21T21:35:00.582Z,13.00
2023-03-21T21:40:00.867Z,11.50
2023-03-21T21:45:00.509Z,10.20
2023-03-21T21:50:00.596Z,10.20
2023-03-21T21:55:00.813Z,7.80
2023-03-21T22:00:02.898Z,8.70
2023-03-21T22:05:00.483Z,11.10
2023-03-21T22:10:00.553Z,6.90
2023-03-21T22:15:00.813Z,5.60
2023-03-21T22:20:06.020Z,4.60
2023-03-21T22:25:00.744Z,4.30
2023-03-21T22:30:01.036Z,4.70
2023-03-21T22:35:00.892Z,3.00
2023-03-21T22:40:00.616Z,3.40
2023-03-21T22:45:00.547Z,2.20
2023-03-21T22:50:00.878Z,2.50
2023-03-21T22:55:00.600Z,2.30
2023-03-21T23:00:02.777Z,2.10
2023-03-21T23:05:00.474Z,2.90
2023-03-21T23:10:00.520Z,2.40
2023-03-21T23:15:02.253Z,2.80
2023-03-21T23:20:01.345Z,3.00
2023-03-21T23:25:00.624Z,2.70
2023-03-21T23:30:01.341Z,3.00
2023-03-21T23:35:00.553Z,4.00
2023-03-21T23:40:00.768Z,2.80
2023-03-21T23:45:00.553Z,2.40
2023-03-21T23:50:00.555Z,2.70
2023-03-21T23:55:00.500Z,3.60
